Malta, Idaho
Current Conditions -  °F | °C
As of 6:53 PM on Saturday 22 Nov 2014 (Local Time) from KBYI Reporting Station
Clear Clear  
Wind Chill: 26°   Ceiling: Unl
Heat Index: 36°   Visibility: 10mi
Dew Point: 30°   Wind: 18mph
Humidity: 79%   Direction: 260°W
Pressure: 29.83"   Gusts: 25mph
Location:  42.31°N, 113.37°W
Report Text: KBYI 230153Z AUTO 26016G22KT 10SM CLR 02/M01 A2983 RMK AO2 RAB37E49 SLP102 P0000 T00221011
Loading
Personal Weather Stations






























Interactive Weather Map New forecast layout! Learn more

10-Day Weather Forecast

Advertisements
Track Severe Weather on mobile